Portada
METAR-TAF:

METAR-TAF

Aeroports :

Madera Municipal Airport

Madera, Califòrnia, Estats Units d'Amèrica

latitud: 36-59-12N, longitud: 120-06-39W, altitud: 77 m

Observació

L'informe es va fer fa 22 minuts, a les 07:28 UTC
Vent calma
Temperatura 11°C
Humitat 82%
Pressió 1021 hPa
Visibilitat: 6.4 km
Cel ennuvolat a una alçada de 12000 ft
calitja

METAR: KMAE 260728Z AUTO 00000KT 4SM HZ BKN120 11/08 A3016 RMK AO2 T01110083

Hora: 23:50 (07:50 UTC)


TAF: manca

Observacions i pronòstics meteorològics de més de 4000 aeroports (METAR i TAF).

Les estacions disponibles són els punts grocs i vermells al mapa.

Posi el ratolí al punt desitjat per veure el nom de l'estació.

Feu clic per veure les observacions i els pronòstics meteorològics.

Per canviar el mapa: feu clic els botons verds amb una creu de color negre per apropar; al botó verd amb un guió per allunyar la imatge; o en les fletxes verdes per a mapes adjacents.


METAR-TAF: